sensor_id;sensor_type;location;lat;lon;timestamp;P1;durP1;ratioP1;P2;durP2;ratioP2
1613;SDS011;800;48.824;9.346;2022-10-16T00:00:44;5.77;;;2.43;;
1613;SDS011;800;48.824;9.346;2022-10-16T00:03:10;4.90;;;2.30;;
1613;SDS011;800;48.824;9.346;2022-10-16T00:05:39;4.93;;;2.30;;
1613;SDS011;800;48.824;9.346;2022-10-16T00:08:07;4.43;;;2.43;;
1613;SDS011;800;48.824;9.346;2022-10-16T00:10:34;6.03;;;2.43;;
1613;SDS011;800;48.824;9.346;2022-10-16T00:13:00;2.33;;;2.13;;
1613;SDS011;800;48.824;9.346;2022-10-16T00:15:26;4.30;;;2.17;;
1613;SDS011;800;48.824;9.346;2022-10-16T00:17:51;5.00;;;1.90;;
1613;SDS011;800;48.824;9.346;2022-10-16T00:20:17;3.67;;;2.30;;
1613;SDS011;800;48.824;9.346;2022-10-16T00:22:42;3.93;;;2.37;;
1613;SDS011;800;48.824;9.346;2022-10-16T00:25:08;2.80;;;1.80;;
1613;SDS011;800;48.824;9.346;2022-10-16T00:27:34;3.53;;;1.63;;
1613;SDS011;800;48.824;9.346;2022-10-16T00:30:00;6.13;;;1.90;;
1613;SDS011;800;48.824;9.346;2022-10-16T00:32:25;2.10;;;2.00;;
1613;SDS011;800;48.824;9.346;2022-10-16T00:34:51;5.00;;;1.67;;
1613;SDS011;800;48.824;9.346;2022-10-16T00:37:19;6.53;;;1.93;;
1613;SDS011;800;48.824;9.346;2022-10-16T00:39:44;3.53;;;2.73;;
1613;SDS011;800;48.824;9.346;2022-10-16T00:42:14;2.27;;;2.07;;
1613;SDS011;800;48.824;9.346;2022-10-16T00:44:43;3.30;;;2.30;;
1613;SDS011;800;48.824;9.346;2022-10-16T00:47:12;4.03;;;1.90;;
1613;SDS011;800;48.824;9.346;2022-10-16T00:49:43;3.73;;;2.10;;
1613;SDS011;800;48.824;9.346;2022-10-16T00:52:09;2.30;;;1.80;;
1613;SDS011;800;48.824;9.346;2022-10-16T00:54:35;3.33;;;2.57;;
1613;SDS011;800;48.824;9.346;2022-10-16T00:57:01;8.50;;;2.67;;
1613;SDS011;800;48.824;9.346;2022-10-16T00:59:31;5.57;;;2.10;;
1613;SDS011;800;48.824;9.346;2022-10-16T01:01:57;6.13;;;2.10;;
1613;SDS011;800;48.824;9.346;2022-10-16T01:04:23;2.10;;;1.73;;
1613;SDS011;800;48.824;9.346;2022-10-16T01:09:52;2.70;;;1.97;;
1613;SDS011;800;48.824;9.346;2022-10-16T01:12:59;1.90;;;1.80;;
1613;SDS011;800;48.824;9.346;2022-10-16T01:15:27;2.43;;;2.23;;
1613;SDS011;800;48.824;9.346;2022-10-16T01:20:30;3.63;;;2.80;;
1613;SDS011;800;48.824;9.346;2022-10-16T01:28:32;6.53;;;2.60;;
1613;SDS011;800;48.824;9.346;2022-10-16T01:31:18;3.07;;;2.53;;
1613;SDS011;800;48.824;9.346;2022-10-16T01:33:48;4.40;;;2.97;;
1613;SDS011;800;48.824;9.346;2022-10-16T01:36:21;3.80;;;2.40;;
1613;SDS011;800;48.824;9.346;2022-10-16T01:38:54;3.67;;;2.27;;
1613;SDS011;800;48.824;9.346;2022-10-16T01:41:26;7.80;;;2.50;;
1613;SDS011;800;48.824;9.346;2022-10-16T01:44:10;2.50;;;1.83;;
1613;SDS011;800;48.824;9.346;2022-10-16T01:46:45;3.60;;;2.50;;
1613;SDS011;800;48.824;9.346;2022-10-16T01:49:13;3.23;;;2.23;;
1613;SDS011;800;48.824;9.346;2022-10-16T01:51:39;5.40;;;2.50;;
1613;SDS011;800;48.824;9.346;2022-10-16T01:54:08;3.20;;;2.23;;
1613;SDS011;800;48.824;9.346;2022-10-16T01:56:36;3.40;;;2.40;;
1613;SDS011;800;48.824;9.346;2022-10-16T01:59:08;2.23;;;2.03;;
1613;SDS011;800;48.824;9.346;2022-10-16T02:01:38;3.93;;;2.00;;
1613;SDS011;800;48.824;9.346;2022-10-16T02:04:09;3.07;;;2.27;;
1613;SDS011;800;48.824;9.346;2022-10-16T02:06:42;3.80;;;2.07;;
1613;SDS011;800;48.824;9.346;2022-10-16T02:09:08;5.63;;;2.40;;
1613;SDS011;800;48.824;9.346;2022-10-16T02:11:34;2.70;;;2.50;;
1613;SDS011;800;48.824;9.346;2022-10-16T02:14:06;3.93;;;2.13;;
1613;SDS011;800;48.824;9.346;2022-10-16T02:16:37;7.30;;;1.90;;
1613;SDS011;800;48.824;9.346;2022-10-16T02:19:07;7.30;;;2.17;;
1613;SDS011;800;48.824;9.346;2022-10-16T02:21:37;1.80;;;1.70;;
1613;SDS011;800;48.824;9.346;2022-10-16T02:27:10;2.27;;;2.00;;
1613;SDS011;800;48.824;9.346;2022-10-16T02:29:47;4.57;;;2.17;;
1613;SDS011;800;48.824;9.346;2022-10-16T02:32:22;3.93;;;2.10;;
1613;SDS011;800;48.824;9.346;2022-10-16T02:34:49;6.90;;;2.33;;
1613;SDS011;800;48.824;9.346;2022-10-16T02:37:16;5.30;;;2.23;;
1613;SDS011;800;48.824;9.346;2022-10-16T02:39:43;2.13;;;2.03;;
1613;SDS011;800;48.824;9.346;2022-10-16T02:42:12;3.70;;;2.20;;
1613;SDS011;800;48.824;9.346;2022-10-16T02:44:39;3.77;;;2.20;;
1613;SDS011;800;48.824;9.346;2022-10-16T02:47:05;11.87;;;2.03;;
1613;SDS011;800;48.824;9.346;2022-10-16T02:49:31;5.43;;;3.37;;
1613;SDS011;800;48.824;9.346;2022-10-16T02:51:56;2.40;;;2.00;;
1613;SDS011;800;48.824;9.346;2022-10-16T02:54:22;3.90;;;2.80;;
1613;SDS011;800;48.824;9.346;2022-10-16T02:56:48;2.90;;;2.27;;
1613;SDS011;800;48.824;9.346;2022-10-16T02:59:14;2.00;;;1.80;;
1613;SDS011;800;48.824;9.346;2022-10-16T03:01:40;3.43;;;2.50;;
1613;SDS011;800;48.824;9.346;2022-10-16T03:04:06;5.47;;;1.93;;
1613;SDS011;800;48.824;9.346;2022-10-16T03:06:31;4.70;;;2.17;;
1613;SDS011;800;48.824;9.346;2022-10-16T03:08:57;3.70;;;2.10;;
1613;SDS011;800;48.824;9.346;2022-10-16T03:11:22;4.60;;;2.13;;
1613;SDS011;800;48.824;9.346;2022-10-16T03:13:48;2.30;;;1.67;;
1613;SDS011;800;48.824;9.346;2022-10-16T03:16:13;1.80;;;1.70;;
1613;SDS011;800;48.824;9.346;2022-10-16T03:18:39;3.00;;;2.00;;
1613;SDS011;800;48.824;9.346;2022-10-16T03:21:05;2.63;;;1.87;;
1613;SDS011;800;48.824;9.346;2022-10-16T03:23:30;4.00;;;2.07;;
1613;SDS011;800;48.824;9.346;2022-10-16T03:25:56;3.40;;;2.27;;
1613;SDS011;800;48.824;9.346;2022-10-16T03:28:21;5.50;;;1.87;;
1613;SDS011;800;48.824;9.346;2022-10-16T03:30:47;2.13;;;1.80;;
1613;SDS011;800;48.824;9.346;2022-10-16T03:33:13;2.57;;;1.90;;
1613;SDS011;800;48.824;9.346;2022-10-16T03:35:38;4.83;;;2.17;;
1613;SDS011;800;48.824;9.346;2022-10-16T03:38:04;3.10;;;2.20;;
1613;SDS011;800;48.824;9.346;2022-10-16T03:40:29;4.30;;;1.50;;
1613;SDS011;800;48.824;9.346;2022-10-16T03:42:57;3.20;;;2.37;;
1613;SDS011;800;48.824;9.346;2022-10-16T03:45:23;2.60;;;2.40;;
1613;SDS011;800;48.824;9.346;2022-10-16T03:47:49;2.30;;;1.97;;
1613;SDS011;800;48.824;9.346;2022-10-16T03:50:14;2.20;;;2.03;;
1613;SDS011;800;48.824;9.346;2022-10-16T03:52:40;7.70;;;2.40;;
1613;SDS011;800;48.824;9.346;2022-10-16T03:55:06;2.60;;;2.07;;
1613;SDS011;800;48.824;9.346;2022-10-16T03:57:32;2.70;;;1.90;;
1613;SDS011;800;48.824;9.346;2022-10-16T03:59:58;2.50;;;2.00;;
1613;SDS011;800;48.824;9.346;2022-10-16T04:02:23;5.57;;;2.53;;
1613;SDS011;800;48.824;9.346;2022-10-16T04:04:49;6.33;;;2.33;;
1613;SDS011;800;48.824;9.346;2022-10-16T04:07:14;2.07;;;1.87;;
1613;SDS011;800;48.824;9.346;2022-10-16T04:09:40;4.53;;;2.03;;
1613;SDS011;800;48.824;9.346;2022-10-16T04:12:06;2.40;;;2.13;;
1613;SDS011;800;48.824;9.346;2022-10-16T04:14:32;2.20;;;2.00;;
1613;SDS011;800;48.824;9.346;2022-10-16T04:16:58;3.60;;;2.13;;
1613;SDS011;800;48.824;9.346;2022-10-16T04:19:23;3.33;;;2.17;;
1613;SDS011;800;48.824;9.346;2022-10-16T04:21:49;2.37;;;2.00;;
1613;SDS011;800;48.824;9.346;2022-10-16T04:24:15;2.63;;;1.70;;
1613;SDS011;800;48.824;9.346;2022-10-16T04:26:40;4.00;;;3.00;;
1613;SDS011;800;48.824;9.346;2022-10-16T04:29:06;6.33;;;2.00;;
1613;SDS011;800;48.824;9.346;2022-10-16T04:31:32;1.80;;;1.70;;
1613;SDS011;800;48.824;9.346;2022-10-16T04:33:58;2.70;;;1.70;;
1613;SDS011;800;48.824;9.346;2022-10-16T04:36:23;3.70;;;1.90;;
1613;SDS011;800;48.824;9.346;2022-10-16T04:38:49;2.10;;;2.00;;
1613;SDS011;800;48.824;9.346;2022-10-16T04:41:14;3.77;;;2.70;;
1613;SDS011;800;48.824;9.346;2022-10-16T04:43:40;2.40;;;2.17;;
1613;SDS011;800;48.824;9.346;2022-10-16T04:46:06;2.53;;;2.20;;
1613;SDS011;800;48.824;9.346;2022-10-16T04:48:31;2.07;;;1.90;;
1613;SDS011;800;48.824;9.346;2022-10-16T04:50:57;2.17;;;1.97;;
1613;SDS011;800;48.824;9.346;2022-10-16T04:53:24;2.87;;;2.20;;
1613;SDS011;800;48.824;9.346;2022-10-16T04:55:49;2.50;;;2.30;;
1613;SDS011;800;48.824;9.346;2022-10-16T04:58:15;4.40;;;1.83;;
1613;SDS011;800;48.824;9.346;2022-10-16T05:00:41;4.93;;;2.10;;
1613;SDS011;800;48.824;9.346;2022-10-16T05:03:07;7.17;;;2.07;;
1613;SDS011;800;48.824;9.346;2022-10-16T05:05:33;7.00;;;2.27;;
1613;SDS011;800;48.824;9.346;2022-10-16T05:08:00;4.47;;;2.80;;
1613;SDS011;800;48.824;9.346;2022-10-16T05:10:26;2.60;;;2.07;;
1613;SDS011;800;48.824;9.346;2022-10-16T05:12:51;3.10;;;1.80;;
1613;SDS011;800;48.824;9.346;2022-10-16T05:15:17;3.57;;;2.30;;
1613;SDS011;800;48.824;9.346;2022-10-16T05:17:43;3.67;;;2.40;;
1613;SDS011;800;48.824;9.346;2022-10-16T05:20:09;2.63;;;2.43;;
1613;SDS011;800;48.824;9.346;2022-10-16T05:22:35;5.43;;;2.10;;
1613;SDS011;800;48.824;9.346;2022-10-16T05:25:00;1.80;;;1.70;;
1613;SDS011;800;48.824;9.346;2022-10-16T05:27:26;2.00;;;1.73;;
1613;SDS011;800;48.824;9.346;2022-10-16T05:29:51;4.63;;;1.70;;
1613;SDS011;800;48.824;9.346;2022-10-16T05:32:17;3.70;;;1.43;;
1613;SDS011;800;48.824;9.346;2022-10-16T05:34:43;2.13;;;1.70;;
1613;SDS011;800;48.824;9.346;2022-10-16T05:37:09;2.23;;;1.70;;
1613;SDS011;800;48.824;9.346;2022-10-16T05:39:36;2.67;;;1.80;;
1613;SDS011;800;48.824;9.346;2022-10-16T05:42:02;1.80;;;1.70;;
1613;SDS011;800;48.824;9.346;2022-10-16T05:44:28;3.50;;;1.90;;
1613;SDS011;800;48.824;9.346;2022-10-16T05:46:54;1.97;;;1.60;;
1613;SDS011;800;48.824;9.346;2022-10-16T05:49:19;5.13;;;1.90;;
1613;SDS011;800;48.824;9.346;2022-10-16T05:51:45;2.37;;;1.97;;
1613;SDS011;800;48.824;9.346;2022-10-16T05:54:11;5.70;;;1.77;;
1613;SDS011;800;48.824;9.346;2022-10-16T05:56:36;1.90;;;1.80;;
1613;SDS011;800;48.824;9.346;2022-10-16T05:59:03;1.70;;;1.60;;
1613;SDS011;800;48.824;9.346;2022-10-16T06:01:29;2.90;;;2.10;;
1613;SDS011;800;48.824;9.346;2022-10-16T06:03:56;1.83;;;1.73;;
1613;SDS011;800;48.824;9.346;2022-10-16T06:06:23;4.13;;;1.97;;
1613;SDS011;800;48.824;9.346;2022-10-16T06:08:51;2.47;;;1.90;;
1613;SDS011;800;48.824;9.346;2022-10-16T06:11:19;5.17;;;2.17;;
1613;SDS011;800;48.824;9.346;2022-10-16T06:13:50;2.43;;;1.60;;
1613;SDS011;800;48.824;9.346;2022-10-16T06:16:16;3.10;;;1.57;;
1613;SDS011;800;48.824;9.346;2022-10-16T06:18:41;2.47;;;1.87;;
1613;SDS011;800;48.824;9.346;2022-10-16T06:21:08;1.80;;;1.70;;
1613;SDS011;800;48.824;9.346;2022-10-16T06:23:36;2.00;;;1.70;;
1613;SDS011;800;48.824;9.346;2022-10-16T06:26:05;2.20;;;1.80;;
1613;SDS011;800;48.824;9.346;2022-10-16T06:28:36;3.43;;;1.70;;
1613;SDS011;800;48.824;9.346;2022-10-16T06:31:02;1.90;;;1.70;;
1613;SDS011;800;48.824;9.346;2022-10-16T06:33:29;1.97;;;1.60;;
1613;SDS011;800;48.824;9.346;2022-10-16T06:38:32;2.23;;;1.80;;
1613;SDS011;800;48.824;9.346;2022-10-16T06:40:57;6.50;;;2.00;;
1613;SDS011;800;48.824;9.346;2022-10-16T06:43:23;2.50;;;1.97;;
1613;SDS011;800;48.824;9.346;2022-10-16T06:48:18;3.53;;;1.70;;
1613;SDS011;800;48.824;9.346;2022-10-16T06:50:44;2.00;;;1.73;;
1613;SDS011;800;48.824;9.346;2022-10-16T06:53:19;3.30;;;2.00;;
1613;SDS011;800;48.824;9.346;2022-10-16T06:55:45;2.30;;;1.97;;
1613;SDS011;800;48.824;9.346;2022-10-16T06:58:10;4.60;;;1.90;;
1613;SDS011;800;48.824;9.346;2022-10-16T07:00:36;2.20;;;1.60;;
1613;SDS011;800;48.824;9.346;2022-10-16T07:03:02;1.70;;;1.60;;
1613;SDS011;800;48.824;9.346;2022-10-16T07:05:27;9.03;;;2.00;;
1613;SDS011;800;48.824;9.346;2022-10-16T07:07:53;2.53;;;2.00;;
1613;SDS011;800;48.824;9.346;2022-10-16T07:10:18;6.20;;;1.83;;
1613;SDS011;800;48.824;9.346;2022-10-16T07:12:44;3.20;;;1.77;;
1613;SDS011;800;48.824;9.346;2022-10-16T07:15:10;2.10;;;1.90;;
1613;SDS011;800;48.824;9.346;2022-10-16T07:17:35;3.00;;;1.87;;
1613;SDS011;800;48.824;9.346;2022-10-16T07:20:01;2.00;;;1.50;;
1613;SDS011;800;48.824;9.346;2022-10-16T07:22:28;2.30;;;2.10;;
1613;SDS011;800;48.824;9.346;2022-10-16T07:24:53;2.60;;;1.90;;
1613;SDS011;800;48.824;9.346;2022-10-16T07:27:19;6.33;;;2.17;;
1613;SDS011;800;48.824;9.346;2022-10-16T07:29:47;2.10;;;1.90;;
1613;SDS011;800;48.824;9.346;2022-10-16T07:32:12;2.93;;;1.70;;
1613;SDS011;800;48.824;9.346;2022-10-16T07:34:38;2.53;;;2.03;;
1613;SDS011;800;48.824;9.346;2022-10-16T07:37:04;2.30;;;1.70;;
1613;SDS011;800;48.824;9.346;2022-10-16T07:39:30;3.00;;;1.60;;
1613;SDS011;800;48.824;9.346;2022-10-16T07:41:55;1.93;;;1.70;;
1613;SDS011;800;48.824;9.346;2022-10-16T07:44:21;4.03;;;1.77;;
1613;SDS011;800;48.824;9.346;2022-10-16T07:46:46;6.57;;;1.90;;
1613;SDS011;800;48.824;9.346;2022-10-16T07:49:12;3.20;;;1.80;;
1613;SDS011;800;48.824;9.346;2022-10-16T07:51:37;1.80;;;1.60;;
1613;SDS011;800;48.824;9.346;2022-10-16T07:54:04;7.23;;;2.00;;
1613;SDS011;800;48.824;9.346;2022-10-16T07:56:30;1.63;;;1.53;;
1613;SDS011;800;48.824;9.346;2022-10-16T07:58:57;3.80;;;1.83;;
1613;SDS011;800;48.824;9.346;2022-10-16T08:01:23;2.30;;;1.53;;
1613;SDS011;800;48.824;9.346;2022-10-16T08:03:49;1.73;;;1.63;;
1613;SDS011;800;48.824;9.346;2022-10-16T08:06:16;5.00;;;1.90;;
1613;SDS011;800;48.824;9.346;2022-10-16T08:08:43;3.27;;;1.83;;
1613;SDS011;800;48.824;9.346;2022-10-16T08:11:08;3.07;;;1.93;;
1613;SDS011;800;48.824;9.346;2022-10-16T08:13:34;3.20;;;1.90;;
1613;SDS011;800;48.824;9.346;2022-10-16T08:16:00;1.97;;;1.73;;
1613;SDS011;800;48.824;9.346;2022-10-16T08:18:26;2.53;;;1.50;;
1613;SDS011;800;48.824;9.346;2022-10-16T08:20:56;4.70;;;2.10;;
1613;SDS011;800;48.824;9.346;2022-10-16T08:23:22;2.23;;;1.90;;
1613;SDS011;800;48.824;9.346;2022-10-16T08:25:50;5.20;;;2.33;;
1613;SDS011;800;48.824;9.346;2022-10-16T08:28:16;2.30;;;2.10;;
1613;SDS011;800;48.824;9.346;2022-10-16T08:30:42;6.80;;;1.90;;
1613;SDS011;800;48.824;9.346;2022-10-16T08:33:07;2.80;;;1.80;;
1613;SDS011;800;48.824;9.346;2022-10-16T08:35:33;2.80;;;1.37;;
1613;SDS011;800;48.824;9.346;2022-10-16T08:37:58;2.83;;;2.33;;
1613;SDS011;800;48.824;9.346;2022-10-16T08:40:25;4.70;;;1.80;;
1613;SDS011;800;48.824;9.346;2022-10-16T08:48:08;2.10;;;1.90;;
1613;SDS011;800;48.824;9.346;2022-10-16T08:50:41;5.30;;;1.70;;
1613;SDS011;800;48.824;9.346;2022-10-16T08:53:07;1.87;;;1.60;;
1613;SDS011;800;48.824;9.346;2022-10-16T08:55:45;3.03;;;1.77;;
1613;SDS011;800;48.824;9.346;2022-10-16T08:58:15;6.23;;;1.70;;
1613;SDS011;800;48.824;9.346;2022-10-16T09:00:43;2.60;;;1.53;;
1613;SDS011;800;48.824;9.346;2022-10-16T09:11:14;9.07;;;3.47;;
1613;SDS011;800;48.824;9.346;2022-10-16T09:17:21;7.97;;;4.23;;
1613;SDS011;800;48.824;9.346;2022-10-16T09:25:41;4.93;;;3.60;;
1613;SDS011;800;48.824;9.346;2022-10-16T09:28:09;4.30;;;3.10;;
1613;SDS011;800;48.824;9.346;2022-10-16T09:30:35;2.07;;;1.87;;
1613;SDS011;800;48.824;9.346;2022-10-16T09:33:02;3.10;;;2.20;;
1613;SDS011;800;48.824;9.346;2022-10-16T09:35:34;2.10;;;1.77;;
1613;SDS011;800;48.824;9.346;2022-10-16T09:38:03;4.03;;;1.30;;
1613;SDS011;800;48.824;9.346;2022-10-16T09:40:38;2.63;;;1.87;;
1613;SDS011;800;48.824;9.346;2022-10-16T09:48:26;4.23;;;1.67;;
1613;SDS011;800;48.824;9.346;2022-10-16T09:50:57;2.40;;;1.90;;
1613;SDS011;800;48.824;9.346;2022-10-16T09:53:26;1.90;;;1.70;;
1613;SDS011;800;48.824;9.346;2022-10-16T09:56:05;1.97;;;1.83;;
1613;SDS011;800;48.824;9.346;2022-10-16T09:58:31;3.57;;;1.50;;
1613;SDS011;800;48.824;9.346;2022-10-16T10:00:58;17.63;;;3.37;;
1613;SDS011;800;48.824;9.346;2022-10-16T10:06:15;2.63;;;1.60;;
1613;SDS011;800;48.824;9.346;2022-10-16T10:08:54;1.40;;;1.30;;
1613;SDS011;800;48.824;9.346;2022-10-16T10:11:45;1.30;;;1.20;;
1613;SDS011;800;48.824;9.346;2022-10-16T10:14:19;3.50;;;2.47;;
1613;SDS011;800;48.824;9.346;2022-10-16T10:16:50;1.50;;;1.40;;
1613;SDS011;800;48.824;9.346;2022-10-16T10:19:18;3.27;;;2.37;;
1613;SDS011;800;48.824;9.346;2022-10-16T10:21:46;2.80;;;1.60;;
1613;SDS011;800;48.824;9.346;2022-10-16T10:24:15;1.83;;;1.53;;
1613;SDS011;800;48.824;9.346;2022-10-16T10:30:27;3.27;;;1.97;;
1613;SDS011;800;48.824;9.346;2022-10-16T10:35:32;1.37;;;1.27;;
1613;SDS011;800;48.824;9.346;2022-10-16T10:41:55;4.23;;;1.77;;
1613;SDS011;800;48.824;9.346;2022-10-16T10:55:09;1.73;;;1.50;;
1613;SDS011;800;48.824;9.346;2022-10-16T11:03:54;6.33;;;2.33;;
1613;SDS011;800;48.824;9.346;2022-10-16T11:06:32;5.87;;;3.53;;
1613;SDS011;800;48.824;9.346;2022-10-16T11:09:17;8.87;;;4.10;;
1613;SDS011;800;48.824;9.346;2022-10-16T11:11:52;7.70;;;2.67;;
1613;SDS011;800;48.824;9.346;2022-10-16T11:19:59;11.07;;;2.97;;
1613;SDS011;800;48.824;9.346;2022-10-16T11:27:35;3.90;;;2.10;;
1613;SDS011;800;48.824;9.346;2022-10-16T11:33:04;6.50;;;2.77;;
1613;SDS011;800;48.824;9.346;2022-10-16T11:35:44;3.17;;;2.23;;
1613;SDS011;800;48.824;9.346;2022-10-16T11:38:26;4.20;;;2.30;;
1613;SDS011;800;48.824;9.346;2022-10-16T11:44:18;5.03;;;2.87;;
1613;SDS011;800;48.824;9.346;2022-10-16T11:47:12;2.60;;;1.80;;
1613;SDS011;800;48.824;9.346;2022-10-16T11:55:46;2.17;;;1.90;;
1613;SDS011;800;48.824;9.346;2022-10-16T12:00:45;1.57;;;1.47;;
1613;SDS011;800;48.824;9.346;2022-10-16T12:08:43;4.07;;;1.90;;
1613;SDS011;800;48.824;9.346;2022-10-16T12:11:22;3.40;;;1.57;;
1613;SDS011;800;48.824;9.346;2022-10-16T12:16:32;1.87;;;1.77;;
1613;SDS011;800;48.824;9.346;2022-10-16T12:19:14;1.60;;;1.50;;
1613;SDS011;800;48.824;9.346;2022-10-16T12:21:41;3.70;;;1.83;;
1613;SDS011;800;48.824;9.346;2022-10-16T12:24:19;2.00;;;1.70;;
1613;SDS011;800;48.824;9.346;2022-10-16T12:26:49;1.57;;;1.47;;
1613;SDS011;800;48.824;9.346;2022-10-16T12:29:29;1.60;;;1.50;;
1613;SDS011;800;48.824;9.346;2022-10-16T12:31:58;3.23;;;2.10;;
1613;SDS011;800;48.824;9.346;2022-10-16T12:34:41;3.43;;;1.70;;
1613;SDS011;800;48.824;9.346;2022-10-16T12:37:19;4.57;;;1.47;;
1613;SDS011;800;48.824;9.346;2022-10-16T12:39:50;1.67;;;1.57;;
1613;SDS011;800;48.824;9.346;2022-10-16T12:42:20;3.57;;;2.30;;
1613;SDS011;800;48.824;9.346;2022-10-16T12:44:46;4.60;;;1.67;;
1613;SDS011;800;48.824;9.346;2022-10-16T12:47:22;2.60;;;2.40;;
1613;SDS011;800;48.824;9.346;2022-10-16T12:50:00;2.93;;;2.13;;
1613;SDS011;800;48.824;9.346;2022-10-16T12:52:36;1.60;;;1.50;;
1613;SDS011;800;48.824;9.346;2022-10-16T12:55:04;1.80;;;1.70;;
1613;SDS011;800;48.824;9.346;2022-10-16T13:05:54;5.23;;;1.97;;
1613;SDS011;800;48.824;9.346;2022-10-16T13:17:00;2.27;;;1.90;;
1613;SDS011;800;48.824;9.346;2022-10-16T13:19:37;2.87;;;1.80;;
1613;SDS011;800;48.824;9.346;2022-10-16T13:23:21;3.53;;;2.10;;
1613;SDS011;800;48.824;9.346;2022-10-16T13:28:12;4.83;;;1.97;;
1613;SDS011;800;48.824;9.346;2022-10-16T13:30:42;2.13;;;1.73;;
1613;SDS011;800;48.824;9.346;2022-10-16T13:35:47;1.43;;;1.33;;
1613;SDS011;800;48.824;9.346;2022-10-16T13:38:18;2.80;;;2.60;;
1613;SDS011;800;48.824;9.346;2022-10-16T13:43:16;5.13;;;1.60;;
1613;SDS011;800;48.824;9.346;2022-10-16T13:45:52;4.20;;;2.20;;
1613;SDS011;800;48.824;9.346;2022-10-16T13:48:22;3.73;;;2.10;;
1613;SDS011;800;48.824;9.346;2022-10-16T13:53:31;3.03;;;1.83;;
1613;SDS011;800;48.824;9.346;2022-10-16T13:56:01;2.03;;;1.60;;
1613;SDS011;800;48.824;9.346;2022-10-16T13:58:28;2.30;;;1.73;;
1613;SDS011;800;48.824;9.346;2022-10-16T14:00:58;1.70;;;1.60;;
1613;SDS011;800;48.824;9.346;2022-10-16T14:03:29;2.27;;;1.70;;
1613;SDS011;800;48.824;9.346;2022-10-16T14:05:57;2.10;;;1.80;;
1613;SDS011;800;48.824;9.346;2022-10-16T14:08:26;2.03;;;1.47;;
1613;SDS011;800;48.824;9.346;2022-10-16T14:10:54;2.30;;;1.47;;
1613;SDS011;800;48.824;9.346;2022-10-16T14:13:25;1.77;;;1.67;;
1613;SDS011;800;48.824;9.346;2022-10-16T14:16:05;1.73;;;1.60;;
1613;SDS011;800;48.824;9.346;2022-10-16T14:18:32;4.07;;;1.70;;
1613;SDS011;800;48.824;9.346;2022-10-16T14:21:11;5.97;;;1.80;;
1613;SDS011;800;48.824;9.346;2022-10-16T14:23:39;2.30;;;1.70;;
1613;SDS011;800;48.824;9.346;2022-10-16T14:28:35;4.57;;;2.00;;
1613;SDS011;800;48.824;9.346;2022-10-16T14:31:13;1.93;;;1.83;;
1613;SDS011;800;48.824;9.346;2022-10-16T14:33:48;3.23;;;1.70;;
1613;SDS011;800;48.824;9.346;2022-10-16T14:36:14;1.70;;;1.60;;
1613;SDS011;800;48.824;9.346;2022-10-16T14:38:48;2.23;;;1.40;;
1613;SDS011;800;48.824;9.346;2022-10-16T14:41:29;1.43;;;1.33;;
1613;SDS011;800;48.824;9.346;2022-10-16T14:43:56;4.13;;;1.73;;
1613;SDS011;800;48.824;9.346;2022-10-16T14:46:36;1.90;;;1.80;;
1613;SDS011;800;48.824;9.346;2022-10-16T14:49:12;2.90;;;1.83;;
1613;SDS011;800;48.824;9.346;2022-10-16T14:51:44;3.20;;;1.63;;
1613;SDS011;800;48.824;9.346;2022-10-16T14:54:14;2.17;;;1.70;;
1613;SDS011;800;48.824;9.346;2022-10-16T14:59:17;2.83;;;1.50;;
1613;SDS011;800;48.824;9.346;2022-10-16T15:01:57;2.00;;;1.63;;
1613;SDS011;800;48.824;9.346;2022-10-16T15:04:23;4.13;;;1.83;;
1613;SDS011;800;48.824;9.346;2022-10-16T15:06:49;2.30;;;1.40;;
1613;SDS011;800;48.824;9.346;2022-10-16T15:09:14;3.00;;;1.80;;
1613;SDS011;800;48.824;9.346;2022-10-16T15:11:40;2.43;;;2.03;;
1613;SDS011;800;48.824;9.346;2022-10-16T15:14:08;4.43;;;1.60;;
1613;SDS011;800;48.824;9.346;2022-10-16T15:16:37;2.17;;;1.70;;
1613;SDS011;800;48.824;9.346;2022-10-16T15:19:03;5.13;;;1.63;;
1613;SDS011;800;48.824;9.346;2022-10-16T15:21:30;1.67;;;1.57;;
1613;SDS011;800;48.824;9.346;2022-10-16T15:23:57;2.10;;;1.90;;
1613;SDS011;800;48.824;9.346;2022-10-16T15:26:25;1.80;;;1.70;;
1613;SDS011;800;48.824;9.346;2022-10-16T15:28:51;4.07;;;1.67;;
1613;SDS011;800;48.824;9.346;2022-10-16T15:31:17;2.00;;;1.40;;
1613;SDS011;800;48.824;9.346;2022-10-16T15:33:43;2.13;;;1.73;;
1613;SDS011;800;48.824;9.346;2022-10-16T15:36:12;2.03;;;1.53;;
1613;SDS011;800;48.824;9.346;2022-10-16T15:38:38;6.60;;;1.90;;
1613;SDS011;800;48.824;9.346;2022-10-16T15:41:03;5.80;;;4.30;;
1613;SDS011;800;48.824;9.346;2022-10-16T15:43:29;8.20;;;5.67;;
1613;SDS011;800;48.824;9.346;2022-10-16T15:45:59;6.63;;;3.33;;
1613;SDS011;800;48.824;9.346;2022-10-16T15:48:31;4.83;;;3.20;;
1613;SDS011;800;48.824;9.346;2022-10-16T15:50:57;3.97;;;2.97;;
1613;SDS011;800;48.824;9.346;2022-10-16T15:53:24;3.80;;;3.00;;
1613;SDS011;800;48.824;9.346;2022-10-16T15:55:49;4.43;;;3.17;;
1613;SDS011;800;48.824;9.346;2022-10-16T15:58:15;6.03;;;2.93;;
1613;SDS011;800;48.824;9.346;2022-10-16T16:00:41;3.07;;;2.87;;
1613;SDS011;800;48.824;9.346;2022-10-16T16:03:07;5.33;;;3.13;;
1613;SDS011;800;48.824;9.346;2022-10-16T16:05:33;4.53;;;2.70;;
1613;SDS011;800;48.824;9.346;2022-10-16T16:08:02;4.73;;;2.77;;
1613;SDS011;800;48.824;9.346;2022-10-16T16:10:27;2.97;;;2.40;;
1613;SDS011;800;48.824;9.346;2022-10-16T16:12:53;6.43;;;2.80;;
1613;SDS011;800;48.824;9.346;2022-10-16T16:15:19;3.70;;;3.13;;
1613;SDS011;800;48.824;9.346;2022-10-16T16:17:45;2.77;;;2.57;;
1613;SDS011;800;48.824;9.346;2022-10-16T16:20:11;2.83;;;2.63;;
1613;SDS011;800;48.824;9.346;2022-10-16T16:22:37;2.67;;;2.30;;
1613;SDS011;800;48.824;9.346;2022-10-16T16:25:02;3.47;;;2.27;;
1613;SDS011;800;48.824;9.346;2022-10-16T16:27:28;3.87;;;2.70;;
1613;SDS011;800;48.824;9.346;2022-10-16T16:29:57;4.70;;;2.40;;
1613;SDS011;800;48.824;9.346;2022-10-16T16:32:23;3.90;;;2.50;;
1613;SDS011;800;48.824;9.346;2022-10-16T16:34:49;5.93;;;2.70;;
1613;SDS011;800;48.824;9.346;2022-10-16T16:37:14;8.23;;;2.80;;
1613;SDS011;800;48.824;9.346;2022-10-16T16:39:40;2.37;;;2.17;;
1613;SDS011;800;48.824;9.346;2022-10-16T16:42:06;2.70;;;2.50;;
1613;SDS011;800;48.824;9.346;2022-10-16T16:44:32;3.63;;;2.30;;
1613;SDS011;800;48.824;9.346;2022-10-16T16:46:58;2.60;;;2.40;;
1613;SDS011;800;48.824;9.346;2022-10-16T16:49:24;2.70;;;2.50;;
1613;SDS011;800;48.824;9.346;2022-10-16T16:51:49;3.13;;;2.27;;
1613;SDS011;800;48.824;9.346;2022-10-16T16:54:15;2.20;;;2.00;;
1613;SDS011;800;48.824;9.346;2022-10-16T16:56:41;4.93;;;2.63;;
1613;SDS011;800;48.824;9.346;2022-10-16T16:59:15;4.47;;;2.90;;
1613;SDS011;800;48.824;9.346;2022-10-16T17:01:44;3.90;;;2.37;;
1613;SDS011;800;48.824;9.346;2022-10-16T17:04:10;7.73;;;2.70;;
1613;SDS011;800;48.824;9.346;2022-10-16T17:06:36;5.20;;;3.30;;
1613;SDS011;800;48.824;9.346;2022-10-16T17:09:02;5.73;;;2.70;;
1613;SDS011;800;48.824;9.346;2022-10-16T17:11:29;4.50;;;2.77;;
1613;SDS011;800;48.824;9.346;2022-10-16T17:13:55;4.83;;;2.70;;
1613;SDS011;800;48.824;9.346;2022-10-16T17:16:24;6.30;;;2.50;;
1613;SDS011;800;48.824;9.346;2022-10-16T17:18:51;3.83;;;2.50;;
1613;SDS011;800;48.824;9.346;2022-10-16T17:21:18;5.13;;;2.80;;
1613;SDS011;800;48.824;9.346;2022-10-16T17:23:44;6.57;;;2.47;;
1613;SDS011;800;48.824;9.346;2022-10-16T17:26:14;6.33;;;2.30;;
1613;SDS011;800;48.824;9.346;2022-10-16T17:28:41;5.70;;;2.90;;
1613;SDS011;800;48.824;9.346;2022-10-16T17:31:11;5.80;;;3.10;;
1613;SDS011;800;48.824;9.346;2022-10-16T17:33:39;3.00;;;2.20;;
1613;SDS011;800;48.824;9.346;2022-10-16T17:36:04;6.47;;;3.00;;
1613;SDS011;800;48.824;9.346;2022-10-16T17:38:31;6.20;;;4.13;;
1613;SDS011;800;48.824;9.346;2022-10-16T17:40:56;5.53;;;2.63;;
1613;SDS011;800;48.824;9.346;2022-10-16T17:43:22;7.77;;;3.20;;
1613;SDS011;800;48.824;9.346;2022-10-16T17:45:48;6.50;;;3.17;;
1613;SDS011;800;48.824;9.346;2022-10-16T17:48:13;4.37;;;2.67;;
1613;SDS011;800;48.824;9.346;2022-10-16T17:50:39;4.37;;;2.90;;
1613;SDS011;800;48.824;9.346;2022-10-16T17:53:06;3.97;;;2.60;;
1613;SDS011;800;48.824;9.346;2022-10-16T17:55:36;5.40;;;4.90;;
1613;SDS011;800;48.824;9.346;2022-10-16T17:58:05;7.00;;;5.40;;
1613;SDS011;800;48.824;9.346;2022-10-16T18:00:31;4.60;;;3.23;;